Club at Las Campanas

2020-08-10 12:15:00

  • imperial
Date Time Air Temperature Relative Humidity Dewpoint Heat Index Wind Speed Wind Dir. Rain
US/Mountain F % F F MPH deg in
max avg avg
2020-08-09 13:45:00 83.4 28.6 43.5 83.4 12.1 6.6 350.0 0.00
2020-08-09 14:00:00 83.3 28.5 43.3 83.3 8.3 3.3 18.0 0.00
2020-08-09 14:15:00 82.5 28.0 43.5 82.5 21.9 12.6 37.0 0.00
2020-08-09 14:30:00 82.8 28.2 42.2 82.8 20.6 11.3 53.0 0.00
2020-08-09 14:45:00 81.6 27.6 42.4 81.6 19.1 10.8 38.0 0.00
2020-08-09 15:00:00 83.1 28.4 42.1 83.1 16.4 9.2 51.0 0.00
2020-08-09 15:15:00 84.5 29.2 42.4 84.5 13.8 7.5 66.0 0.00
2020-08-09 15:30:00 85.2 29.5 41.9 85.2 12.3 6.4 106.0 0.00
2020-08-09 15:45:00 85.3 29.6 41.8 85.3 13.5 4.6 59.0 0.00
2020-08-09 16:00:00 84.4 29.1 40.5 84.4 10.4 3.6 323.0 0.00
2020-08-09 16:15:00 84.0 28.9 39.7 84.0 4.8 1.9 314.0 0.00
2020-08-09 16:30:00 82.5 28.1 42.4 82.5 12.0 5.9 21.0 0.00
2020-08-09 16:45:00 80.0 26.7 44.5 80.0 18.0 10.7 23.0 0.00
2020-08-09 17:00:00 81.7 27.6 42.3 81.7 17.5 8.1 62.0 0.00
2020-08-09 17:15:00 81.4 27.5 41.9 81.4 12.8 6.4 58.0 0.00
2020-08-09 17:30:00 83.0 28.3 42.0 83.0 9.8 5.4 74.0 0.00
2020-08-09 17:45:00 83.4 28.5 40.9 83.4 11.6 6.9 91.0 0.00
2020-08-09 18:00:00 83.2 28.5 40.0 83.2 11.4 6.3 79.0 0.00
2020-08-09 18:15:00 83.2 28.5 39.4 83.2 11.9 6.0 79.0 0.00
2020-08-09 18:30:00 83.1 28.4 39.4 83.1 8.9 4.9 73.0 0.00
2020-08-09 18:45:00 83.5 28.6 39.1 83.5 10.6 5.1 74.0 0.00
2020-08-09 19:00:00 83.7 28.7 38.5 83.7 9.0 4.8 82.0 0.00
2020-08-09 19:15:00 83.4 28.6 37.9 83.4 6.9 3.0 69.0 0.00
2020-08-09 19:30:00 83.1 28.4 38.0 83.1 6.3 3.7 53.0 0.00
2020-08-09 19:45:00 82.2 27.9 37.9 82.2 5.9 3.8 34.0 0.00
2020-08-09 20:00:00 81.1 27.3 37.8 81.1 4.9 3.5 31.0 0.00
2020-08-09 20:15:00 79.3 26.3 37.4 79.3 3.2 2.1 56.0 0.00
2020-08-09 20:30:00 78.0 25.6 37.2 78.0 3.0 2.1 64.0 0.00
2020-08-09 20:45:00 76.7 24.9 37.3 76.7 2.5 1.7 83.0 0.00
2020-08-09 21:00:00 75.3 24.1 37.0 75.3 2.1 1.2 122.0 0.00
2020-08-09 21:15:00 74.3 23.5 36.8 74.3 1.8 1.1 156.0 0.00
2020-08-09 21:30:00 73.6 23.1 37.1 73.6 1.7 1.1 152.0 0.00
2020-08-09 21:45:00 73.5 23.1 36.7 73.5 2.1 1.3 171.0 0.00
2020-08-09 22:00:00 72.1 22.3 36.8 72.1 3.0 2.0 163.0 0.00
2020-08-09 22:15:00 71.3 21.8 36.5 71.3 3.1 2.1 166.0 0.00
2020-08-09 22:30:00 70.3 21.3 36.4 70.3 3.0 2.0 166.0 0.00
2020-08-09 22:45:00 69.5 20.9 36.6 69.5 4.6 2.8 163.0 0.00
2020-08-09 23:00:00 69.4 20.8 36.6 69.4 3.7 2.5 161.0 0.00
2020-08-09 23:15:00 69.1 20.6 36.5 69.1 3.2 1.9 173.0 0.00
2020-08-09 23:30:00 68.9 20.5 36.5 68.9 4.3 2.5 161.0 0.00
2020-08-09 23:45:00 69.3 20.7 36.4 69.3 4.0 3.0 159.0 0.00
2020-08-10 00:00:00 69.0 20.6 36.4 69.0 3.8 2.6 167.0 0.00
2020-08-10 00:15:00 68.9 20.5 35.9 68.9 3.8 2.7 163.0 0.00
2020-08-10 00:30:00 68.6 20.3 35.8 68.6 3.7 2.4 162.0 0.00
2020-08-10 00:45:00 68.8 20.5 35.8 68.8 11.2 3.5 234.0 0.00
2020-08-10 01:00:00 68.1 20.1 36.4 68.1 6.7 4.6 264.0 0.00
2020-08-10 01:15:00 67.4 19.7 36.6 67.4 4.3 2.0 259.0 0.00
2020-08-10 01:30:00 66.7 19.3 36.4 66.7 2.6 1.5 184.0 0.00
2020-08-10 01:45:00 66.3 19.1 36.8 66.3 3.1 1.6 199.0 0.00
2020-08-10 02:00:00 66.2 19.0 37.3 66.2 4.8 3.2 221.0 0.00
2020-08-10 02:15:00 65.0 18.4 37.1 65.0 4.7 2.5 191.0 0.00
2020-08-10 02:30:00 65.9 18.8 36.8 65.9 7.2 4.9 180.0 0.00
2020-08-10 02:45:00 65.7 18.7 36.2 65.7 6.7 4.9 178.0 0.00
2020-08-10 03:00:00 65.6 18.7 36.1 65.6 6.7 4.9 174.0 0.00
2020-08-10 03:15:00 64.9 18.3 36.4 64.9 5.4 3.1 191.0 0.00
2020-08-10 03:30:00 63.4 17.4 36.7 63.4 5.5 4.0 282.0 0.00
2020-08-10 03:45:00 62.9 17.2 35.8 62.9 3.8 2.1 194.0 0.00
2020-08-10 04:00:00 63.0 17.2 35.5 63.0 4.1 2.5 162.0 0.00
2020-08-10 04:15:00 62.9 17.2 35.7 62.9 3.6 2.0 156.0 0.00
2020-08-10 04:30:00 61.2 16.2 35.6 61.2 3.7 2.2 116.0 0.00
2020-08-10 04:45:00 62.7 17.0 35.7 62.7 4.2 2.0 131.0 0.00
2020-08-10 05:00:00 63.0 17.2 36.3 63.0 5.1 3.0 131.0 0.00
2020-08-10 05:15:00 63.4 17.4 35.9 63.4 3.0 1.5 115.0 0.00
2020-08-10 05:30:00 62.0 16.7 35.2 62.0 4.2 2.1 155.0 0.00
2020-08-10 05:45:00 61.8 16.5 34.4 61.8 2.3 1.1 25.0 0.00
2020-08-10 06:00:00 61.6 16.5 34.3 61.6 3.8 1.5 336.0 0.00
2020-08-10 06:15:00 59.8 15.5 36.1 59.8 2.7 1.7 62.0 0.00
2020-08-10 06:30:00 59.5 15.3 35.1 59.5 4.1 2.3 68.0 0.00
2020-08-10 06:45:00 59.1 15.1 35.1 59.1 3.2 1.9 101.0 0.00
2020-08-10 07:00:00 59.7 15.4 35.4 59.7 5.5 3.2 109.0 0.00
2020-08-10 07:15:00 60.9 16.1 36.0 60.9 6.6 4.0 92.0 0.00
2020-08-10 07:30:00 62.1 16.7 36.1 62.1 8.1 4.8 94.0 0.00
2020-08-10 07:45:00 64.4 18.0 36.7 64.4 9.2 6.0 101.0 0.00
2020-08-10 08:00:00 64.0 17.8 37.6 64.0 6.8 4.2 358.0 0.00
2020-08-10 08:15:00 65.9 18.9 38.0 65.9 6.8 4.0 52.0 0.00
2020-08-10 08:30:00 67.7 19.8 37.5 67.7 12.3 6.4 60.0 0.00
2020-08-10 08:45:00 67.8 19.9 37.3 67.8 11.5 7.0 66.0 0.00
2020-08-10 09:00:00 69.6 20.9 37.5 69.6 10.5 5.9 82.0 0.00
2020-08-10 09:15:00 71.9 22.2 37.9 71.9 9.9 6.0 88.0 0.00
2020-08-10 09:30:00 73.7 23.2 37.8 73.7 11.2 6.4 66.0 0.00
2020-08-10 09:45:00 73.4 23.0 38.4 73.4 11.1 7.5 40.0 0.00
2020-08-10 10:00:00 74.6 23.7 39.3 74.6 8.3 5.3 36.0 0.00
2020-08-10 10:15:00 77.1 25.0 37.7 77.1 11.4 6.5 74.0 0.00
2020-08-10 10:30:00 78.6 25.9 36.0 78.6 10.5 6.9 83.0 0.00
2020-08-10 10:45:00 80.2 26.8 35.9 80.2 10.4 6.3 76.0 0.00
2020-08-10 11:00:00 82.2 27.9 37.0 82.2 11.0 5.4 73.0 0.00
2020-08-10 11:15:00 82.9 28.3 36.6 82.9 11.5 5.5 71.0 0.00
2020-08-10 11:30:00 81.4 27.5 38.4 81.4 17.7 10.3 16.0 0.00
2020-08-10 11:45:00 80.7 27.1 36.7 80.7 18.8 9.1 62.0 0.00
2020-08-10 12:00:00 81.1 27.3 36.6 81.1 14.1 5.5 87.0 0.00
2020-08-10 12:15:00 81.4 27.5 36.6 81.4 8.5 2.9 334.0 0.00

Data is courtesy of the NM Climate Center and other weather station network operators. DO NOT USE IN LEGAL PROCEEDINGS